createdAt,value
2018-06-24T00:00:54.990Z,12.70
2018-06-24T00:03:25.366Z,12.60
2018-06-24T00:05:55.539Z,12.60
2018-06-24T00:08:25.823Z,12.60
2018-06-24T00:10:55.990Z,12.60
2018-06-24T00:13:26.360Z,12.60
2018-06-24T00:15:56.532Z,12.60
2018-06-24T00:18:26.998Z,12.70
2018-06-24T00:20:57.402Z,12.70
2018-06-24T00:23:27.869Z,12.70
2018-06-24T00:25:58.381Z,12.70
2018-06-24T00:28:28.766Z,12.70
2018-06-24T00:30:58.932Z,12.70
2018-06-24T00:33:29.267Z,12.70
2018-06-24T00:35:59.426Z,12.60
2018-06-24T00:38:29.750Z,12.70
2018-06-24T00:40:59.902Z,12.60
2018-06-24T00:43:30.174Z,12.60
2018-06-24T00:46:00.408Z,12.70
2018-06-24T00:51:01.032Z,12.70
2018-06-24T00:53:31.198Z,12.70
2018-06-24T00:56:01.691Z,12.60
2018-06-24T00:58:32.062Z,12.60
2018-06-24T01:01:02.386Z,12.50
2018-06-24T01:03:39.247Z,12.50
2018-06-24T01:06:09.848Z,12.50
2018-06-24T01:08:40.005Z,12.40
2018-06-24T01:11:10.494Z,12.50
2018-06-24T01:13:40.681Z,12.50
2018-06-24T01:16:11.149Z,12.50
2018-06-24T01:18:41.299Z,12.50
2018-06-24T01:21:11.622Z,12.40
2018-06-24T01:23:41.794Z,12.50
2018-06-24T01:26:12.167Z,12.50
2018-06-24T01:28:42.722Z,12.50
2018-06-24T01:31:13.205Z,12.50
2018-06-24T01:33:43.589Z,12.50
2018-06-24T01:36:14.254Z,12.50
2018-06-24T01:38:44.401Z,12.50
2018-06-24T01:41:14.802Z,12.50
2018-06-24T01:43:45.126Z,12.40
2018-06-24T01:46:15.279Z,12.40
2018-06-24T01:48:45.884Z,12.40
2018-06-24T01:51:16.059Z,12.40
2018-06-24T01:53:46.449Z,12.40
2018-06-24T01:56:16.609Z,12.40
2018-06-24T01:58:46.931Z,12.30
2018-06-24T02:01:17.074Z,12.40
2018-06-24T02:03:47.532Z,12.40
2018-06-24T02:06:17.703Z,12.40
2018-06-24T02:08:47.992Z,12.30
2018-06-24T02:11:18.146Z,12.40
2018-06-24T02:13:48.521Z,12.40
2018-06-24T02:16:18.718Z,12.30
2018-06-24T02:18:49.175Z,12.30
2018-06-24T02:21:19.400Z,12.20
2018-06-24T02:23:49.721Z,12.30
2018-06-24T02:26:19.881Z,12.30
2018-06-24T02:28:50.163Z,12.30
2018-06-24T02:31:20.315Z,12.40
2018-06-24T02:36:20.553Z,12.40
2018-06-24T02:38:50.947Z,12.40
2018-06-24T02:41:21.112Z,12.40
2018-06-24T02:43:51.518Z,12.40
2018-06-24T02:48:51.880Z,12.40
2018-06-24T02:51:22.035Z,12.40
2018-06-24T02:53:52.495Z,12.40
2018-06-24T02:56:22.868Z,12.40
2018-06-24T02:58:53.243Z,12.50
2018-06-24T03:01:23.399Z,12.50
2018-06-24T03:03:53.707Z,12.50
2018-06-24T03:06:23.852Z,12.50
2018-06-24T03:08:54.136Z,12.50
2018-06-24T03:11:24.315Z,12.60
2018-06-24T03:13:54.690Z,12.50
2018-06-24T03:16:25.033Z,12.50
2018-06-24T03:21:25.268Z,12.60
2018-06-24T03:26:26.099Z,12.60
2018-06-24T03:28:56.522Z,12.60
2018-06-24T03:31:26.853Z,12.60
2018-06-24T03:33:57.566Z,12.70
2018-06-24T03:36:27.836Z,12.60
2018-06-24T03:38:57.981Z,12.60
2018-06-24T03:41:28.353Z,12.70
2018-06-24T03:43:58.538Z,12.60
2018-06-24T03:46:28.906Z,12.60
2018-06-24T03:48:59.374Z,12.60
2018-06-24T03:51:29.664Z,12.50
2018-06-24T03:53:59.822Z,12.50
2018-06-24T03:56:30.308Z,12.60
2018-06-24T03:59:00.503Z,12.60
2018-06-24T04:01:31.069Z,12.60
2018-06-24T04:04:01.207Z,12.50
2018-06-24T04:06:31.602Z,12.60
2018-06-24T04:09:01.906Z,12.60
2018-06-24T04:11:38.498Z,12.60
2018-06-24T04:14:08.695Z,12.60
2018-06-24T04:16:39.052Z,12.60
2018-06-24T04:19:09.207Z,12.60
2018-06-24T04:21:39.517Z,12.60
2018-06-24T04:24:09.650Z,12.70
2018-06-24T04:26:40.015Z,12.70
2018-06-24T04:29:10.168Z,12.70
2018-06-24T04:31:40.500Z,12.70
2018-06-24T04:34:10.647Z,12.70
2018-06-24T04:36:41.043Z,12.70
2018-06-24T04:39:11.663Z,12.70
2018-06-24T04:41:42.039Z,12.70
2018-06-24T04:44:12.163Z,12.80
2018-06-24T04:46:42.538Z,12.80
2018-06-24T04:49:13.181Z,12.90
2018-06-24T04:51:43.361Z,12.90
2018-06-24T04:54:13.723Z,12.90
2018-06-24T04:56:43.883Z,13.10
2018-06-24T04:59:14.169Z,13.20
2018-06-24T05:01:44.321Z,13.20
2018-06-24T05:04:14.587Z,13.20
2018-06-24T05:06:44.758Z,13.20
2018-06-24T05:09:15.015Z,13.30
2018-06-24T05:11:45.201Z,13.30
2018-06-24T05:14:15.502Z,13.40
2018-06-24T05:16:45.683Z,13.30
2018-06-24T05:19:15.951Z,13.40
2018-06-24T05:21:46.119Z,13.30
2018-06-24T05:24:16.399Z,13.40
2018-06-24T05:26:46.563Z,13.40
2018-06-24T05:29:16.950Z,13.50
2018-06-24T05:31:47.100Z,13.50
2018-06-24T05:34:17.491Z,13.40
2018-06-24T05:36:47.650Z,13.50
2018-06-24T05:39:18.144Z,13.60
2018-06-24T05:41:48.302Z,13.50
2018-06-24T05:44:18.595Z,13.60
2018-06-24T05:46:48.766Z,13.50
2018-06-24T05:49:19.343Z,13.60
2018-06-24T05:51:49.506Z,13.70
2018-06-24T05:54:19.910Z,13.80
2018-06-24T05:56:50.310Z,13.80
2018-06-24T05:59:20.478Z,13.90
2018-06-24T06:01:50.754Z,14.00
2018-06-24T06:04:20.985Z,14.20
2018-06-24T06:06:51.263Z,14.30
2018-06-24T06:09:21.440Z,14.30
2018-06-24T06:11:52.063Z,14.40
2018-06-24T06:14:22.227Z,14.40
2018-06-24T06:16:53.010Z,14.60
2018-06-24T06:19:23.344Z,14.70
2018-06-24T06:21:53.847Z,14.70
2018-06-24T06:24:23.918Z,14.80
2018-06-24T06:26:54.418Z,14.60
2018-06-24T06:29:24.585Z,14.70
2018-06-24T06:31:55.074Z,14.80
2018-06-24T06:34:25.269Z,14.80
2018-06-24T06:36:55.650Z,14.90
2018-06-24T06:39:25.816Z,15.00
2018-06-24T06:41:56.186Z,15.30
2018-06-24T06:46:56.398Z,15.30
2018-06-24T06:49:26.686Z,15.10
2018-06-24T06:51:57.050Z,15.00
2018-06-24T06:54:27.668Z,15.10
2018-06-24T06:56:58.010Z,15.40
2018-06-24T06:59:28.202Z,15.50
2018-06-24T07:01:58.557Z,15.70
2018-06-24T07:04:28.912Z,15.70
2018-06-24T07:06:59.030Z,15.60
2018-06-24T07:09:29.325Z,15.50
2018-06-24T07:12:00.242Z,15.30
2018-06-24T07:14:30.574Z,15.20
2018-06-24T07:17:00.756Z,15.10
2018-06-24T07:19:31.035Z,14.90
2018-06-24T07:22:01.216Z,14.70
2018-06-24T07:24:31.587Z,14.50
2018-06-24T07:27:08.497Z,14.40
2018-06-24T07:29:38.904Z,14.50
2018-06-24T07:32:09.051Z,14.40
2018-06-24T07:34:39.410Z,14.50
2018-06-24T07:37:09.575Z,14.70
2018-06-24T07:39:39.987Z,15.10
2018-06-24T07:42:10.166Z,15.50
2018-06-24T07:44:40.641Z,15.90
2018-06-24T07:47:10.787Z,16.00
2018-06-24T07:49:41.482Z,16.40
2018-06-24T07:52:11.626Z,16.60
2018-06-24T07:57:11.937Z,17.00
2018-06-24T07:59:42.398Z,16.80
2018-06-24T08:07:12.514Z,16.60
2018-06-24T08:09:42.859Z,16.70
2018-06-24T08:12:13.034Z,16.80
2018-06-24T08:14:43.510Z,16.80
2018-06-24T08:17:13.667Z,16.70
2018-06-24T08:19:44.160Z,16.80
2018-06-24T08:22:14.344Z,17.00
2018-06-24T08:24:44.609Z,17.00
2018-06-24T08:27:14.849Z,16.80
2018-06-24T08:32:15.111Z,17.00
2018-06-24T08:34:45.703Z,16.80
2018-06-24T08:37:15.899Z,16.70
2018-06-24T08:39:46.346Z,16.40
2018-06-24T08:42:16.516Z,16.20
2018-06-24T08:44:46.904Z,16.10
2018-06-24T08:47:17.263Z,16.10
2018-06-24T08:49:47.776Z,16.20
2018-06-24T08:52:18.192Z,16.60
2018-06-24T08:54:48.344Z,17.10
2018-06-24T08:57:18.758Z,17.50
2018-06-24T09:02:18.986Z,17.90
2018-06-24T09:04:49.131Z,17.80
2018-06-24T09:07:19.520Z,17.60
2018-06-24T09:09:49.739Z,17.20
2018-06-24T09:12:20.175Z,16.80
2018-06-24T09:14:50.364Z,16.50
2018-06-24T09:17:20.757Z,16.30
2018-06-24T09:19:50.909Z,16.10
2018-06-24T09:22:21.291Z,16.10
2018-06-24T09:27:22.227Z,16.20
2018-06-24T09:29:52.426Z,16.40
2018-06-24T09:32:22.877Z,16.60
2018-06-24T09:34:53.129Z,16.70
2018-06-24T09:37:23.741Z,16.90
2018-06-24T09:39:53.903Z,17.00
2018-06-24T09:42:24.212Z,17.30
2018-06-24T09:44:54.370Z,17.50
2018-06-24T09:47:24.847Z,17.40
2018-06-24T09:52:25.323Z,17.70
2018-06-24T09:54:55.802Z,18.10
2018-06-24T09:57:25.964Z,18.40
2018-06-24T09:59:56.346Z,18.60
2018-06-24T10:02:26.522Z,18.40
2018-06-24T10:04:57.002Z,18.10
2018-06-24T10:07:27.169Z,18.00
2018-06-24T10:09:57.750Z,18.00
2018-06-24T10:12:27.956Z,18.00
2018-06-24T10:14:58.242Z,17.70
2018-06-24T10:17:28.511Z,17.80
2018-06-24T10:19:58.838Z,17.40
2018-06-24T10:22:29.019Z,17.60
2018-06-24T10:24:59.507Z,17.60
2018-06-24T10:27:29.670Z,17.40
2018-06-24T10:30:00.071Z,17.40
2018-06-24T10:32:30.203Z,17.10
2018-06-24T10:35:00.492Z,16.90
2018-06-24T11:13:28.016Z,16.50
2018-06-24T11:15:58.425Z,16.20
2018-06-24T11:18:35.280Z,16.30
2018-06-24T11:21:06.290Z,16.50
2018-06-24T11:23:36.972Z,17.30
2018-06-24T11:26:07.412Z,17.80
2018-06-24T11:28:37.590Z,17.60
2018-06-24T11:31:08.802Z,17.30
2018-06-24T11:33:38.843Z,16.90
2018-06-24T11:36:09.223Z,16.50
2018-06-24T11:38:39.720Z,16.30
2018-06-24T11:41:10.200Z,16.40
2018-06-24T11:43:40.347Z,16.80
2018-06-24T11:46:10.874Z,16.80
2018-06-24T11:48:41.563Z,16.90
2018-06-24T11:51:11.718Z,16.70
2018-06-24T11:53:42.005Z,16.50
2018-06-24T11:56:12.240Z,16.50
2018-06-24T11:58:42.659Z,16.30
2018-06-24T12:01:12.907Z,16.10
2018-06-24T12:03:43.211Z,16.10
2018-06-24T12:06:13.384Z,16.00
2018-06-24T12:08:43.743Z,16.10
2018-06-24T12:11:13.949Z,16.00
2018-06-24T12:13:44.296Z,16.20
2018-06-24T12:16:14.495Z,16.30
2018-06-24T12:18:44.947Z,16.60
2018-06-24T12:21:15.100Z,17.00
2018-06-24T12:23:45.593Z,17.50
2018-06-24T12:26:15.837Z,17.50
2018-06-24T12:28:46.255Z,17.40
2018-06-24T12:31:16.414Z,17.20
2018-06-24T12:33:46.791Z,16.80
2018-06-24T12:36:17.114Z,16.60
2018-06-24T12:38:47.298Z,16.60
2018-06-24T12:41:17.663Z,16.60
2018-06-24T12:43:47.835Z,16.80
2018-06-24T12:46:18.211Z,17.20
2018-06-24T12:48:48.573Z,17.60
2018-06-24T12:51:18.967Z,18.20
2018-06-24T12:53:49.113Z,18.30
2018-06-24T12:58:49.493Z,18.20
2018-06-24T13:01:19.757Z,18.20
2018-06-24T13:03:49.911Z,18.40
2018-06-24T13:06:20.310Z,18.50
2018-06-24T13:08:50.450Z,18.50
2018-06-24T13:11:20.761Z,18.50
2018-06-24T13:13:50.949Z,18.10
2018-06-24T13:16:21.504Z,17.80
2018-06-24T13:18:51.843Z,17.90
2018-06-24T13:21:22.218Z,17.70
2018-06-24T13:23:52.322Z,17.60
2018-06-24T13:26:22.805Z,17.30
2018-06-24T13:28:53.232Z,17.00
2018-06-24T13:31:23.401Z,16.80
2018-06-24T13:33:53.882Z,16.70
2018-06-24T13:36:24.055Z,16.90
2018-06-24T13:38:54.367Z,17.00
2018-06-24T13:41:24.530Z,17.30
2018-06-24T13:43:55.029Z,17.50
2018-06-24T13:46:25.219Z,17.80
2018-06-24T13:48:55.931Z,18.10
2018-06-24T13:51:26.152Z,18.00
2018-06-24T13:53:56.689Z,17.90
2018-06-24T13:56:27.039Z,17.90
2018-06-24T13:58:57.742Z,17.80
2018-06-24T14:01:27.906Z,17.60
2018-06-24T14:03:58.459Z,17.20
2018-06-24T14:06:28.538Z,17.00
2018-06-24T14:08:58.911Z,16.70
2018-06-24T14:11:29.066Z,16.60
2018-06-24T14:13:59.463Z,16.60
2018-06-24T14:16:29.887Z,16.60
2018-06-24T14:19:00.246Z,16.70
2018-06-24T14:21:30.538Z,16.70
2018-06-24T14:24:01.090Z,16.70
2018-06-24T14:26:31.236Z,16.70
2018-06-24T14:31:31.602Z,16.80
2018-06-24T14:34:01.994Z,16.90
2018-06-24T14:36:32.222Z,16.90
2018-06-24T14:39:02.564Z,16.80
2018-06-24T14:44:02.835Z,16.60
2018-06-24T14:46:33.212Z,16.50
2018-06-24T14:49:03.623Z,16.50
2018-06-24T14:51:34.077Z,16.40
2018-06-24T14:54:04.316Z,16.50
2018-06-24T14:56:34.706Z,16.70
2018-06-24T14:59:04.910Z,16.90
2018-06-24T15:01:35.422Z,17.10
2018-06-24T15:04:05.603Z,17.30
2018-06-24T15:06:36.007Z,17.20
2018-06-24T15:09:09.595Z,17.20
2018-06-24T15:11:40.339Z,17.10
2018-06-24T15:14:10.554Z,17.10
2018-06-24T15:16:40.987Z,17.10
2018-06-24T15:19:11.136Z,16.80
2018-06-24T15:24:11.271Z,16.40
2018-06-24T15:29:11.547Z,16.20
2018-06-24T15:31:41.926Z,16.20
2018-06-24T15:34:12.075Z,16.20
2018-06-24T15:36:42.568Z,16.20
2018-06-24T15:39:13.117Z,16.10
2018-06-24T15:44:14.015Z,16.00
2018-06-24T15:46:44.374Z,15.90
2018-06-24T15:49:14.851Z,15.90
2018-06-24T15:51:45.250Z,15.90
2018-06-24T15:54:15.486Z,15.90
2018-06-24T15:56:46.247Z,16.00
2018-06-24T15:59:16.379Z,16.00
2018-06-24T16:01:46.850Z,16.00
2018-06-24T16:04:17.271Z,16.00
2018-06-24T16:06:47.459Z,15.90
2018-06-24T16:09:23.137Z,15.90
2018-06-24T16:11:58.337Z,15.90
2018-06-24T16:14:33.927Z,15.90
2018-06-24T16:17:09.279Z,15.80
2018-06-24T16:19:44.818Z,15.80
2018-06-24T16:22:20.460Z,15.70
2018-06-24T16:24:56.120Z,15.70
2018-06-24T16:27:31.594Z,15.70
2018-06-24T16:32:42.392Z,15.80
2018-06-24T16:35:18.107Z,15.80
2018-06-24T16:37:53.902Z,15.80
2018-06-24T16:40:29.411Z,15.70
2018-06-24T16:43:05.389Z,15.70
2018-06-24T16:45:41.224Z,15.60
2018-06-24T16:48:16.994Z,15.60
2018-06-24T16:53:27.697Z,15.60
2018-06-24T16:56:03.203Z,15.70
2018-06-24T16:58:38.583Z,15.70
2018-06-24T17:01:14.302Z,15.70
2018-06-24T17:03:49.692Z,15.70
2018-06-24T17:06:25.304Z,15.70
2018-06-24T17:09:00.544Z,15.80
2018-06-24T17:11:36.069Z,15.70
2018-06-24T17:14:11.390Z,15.70
2018-06-24T17:16:46.865Z,15.60
2018-06-24T17:19:22.451Z,15.50
2018-06-24T17:21:58.173Z,15.60
2018-06-24T17:24:33.726Z,15.60
2018-06-24T17:27:09.359Z,15.50
2018-06-24T17:32:20.658Z,15.60
2018-06-24T17:34:56.047Z,15.50
2018-06-24T17:37:31.554Z,15.50
2018-06-24T17:40:06.854Z,15.60
2018-06-24T17:42:42.544Z,15.60
2018-06-24T17:45:17.970Z,15.50
2018-06-24T17:47:54.659Z,15.50
2018-06-24T17:53:05.407Z,15.50
2018-06-24T17:55:40.836Z,15.60
2018-06-24T17:58:16.444Z,15.50
2018-06-24T18:00:51.759Z,15.50
2018-06-24T18:03:27.539Z,15.50
2018-06-24T18:06:02.895Z,15.50
2018-06-24T18:11:13.805Z,15.40
2018-06-24T18:13:49.433Z,15.40
2018-06-24T18:16:24.747Z,15.30
2018-06-24T18:19:00.227Z,15.30
2018-06-24T18:21:35.698Z,15.30
2018-06-24T18:24:11.298Z,15.20
2018-06-24T18:26:46.743Z,15.20
2018-06-24T18:29:22.292Z,15.20
2018-06-24T18:34:33.199Z,15.20
2018-06-24T18:37:08.674Z,15.20
2018-06-24T18:39:44.192Z,15.10
2018-06-24T18:42:19.506Z,15.00
2018-06-24T18:44:54.963Z,15.00
2018-06-24T18:47:30.347Z,15.00
2018-06-24T18:50:06.071Z,14.90
2018-06-24T18:52:41.567Z,14.90
2018-06-24T18:55:17.062Z,14.90
2018-06-24T18:57:52.555Z,14.80
2018-06-24T19:00:28.148Z,14.80
2018-06-24T19:03:03.836Z,14.70
2018-06-24T19:05:39.449Z,14.70
2018-06-24T19:08:14.913Z,14.60
2018-06-24T19:10:50.447Z,14.60
2018-06-24T19:13:25.918Z,14.60
2018-06-24T19:16:01.511Z,14.50
2018-06-24T19:18:36.948Z,14.40
2018-06-24T19:21:12.572Z,14.40
2018-06-24T19:23:47.891Z,14.40
2018-06-24T19:26:23.931Z,14.30
2018-06-24T19:28:59.418Z,14.40
2018-06-24T19:31:35.026Z,14.30
2018-06-24T19:34:10.491Z,14.30
2018-06-24T19:36:46.114Z,14.20
2018-06-24T19:39:21.611Z,14.20
2018-06-24T19:41:57.267Z,14.20
2018-06-24T19:44:32.666Z,14.20
2018-06-24T19:47:08.213Z,14.20
2018-06-24T19:49:43.762Z,14.20
2018-06-24T19:52:19.405Z,14.10
2018-06-24T19:54:54.839Z,14.00
2018-06-24T19:57:30.500Z,14.00
2018-06-24T20:00:06.085Z,14.00
2018-06-24T20:02:41.701Z,14.00
2018-06-24T20:05:17.329Z,13.90
2018-06-24T20:07:53.029Z,13.90
2018-06-24T20:13:03.742Z,13.90
2018-06-24T20:15:39.123Z,13.90
2018-06-24T20:18:14.717Z,13.90
2018-06-24T20:20:50.654Z,13.90
2018-06-24T20:23:26.238Z,13.80
2018-06-24T20:26:01.595Z,13.80
2018-06-24T20:28:37.099Z,13.80
2018-06-24T20:31:12.439Z,13.70
2018-06-24T20:33:47.794Z,13.60
2018-06-24T20:36:23.324Z,13.60
2018-06-24T20:38:58.925Z,13.50
2018-06-24T20:41:34.399Z,13.40
2018-06-24T20:44:09.987Z,13.40
2018-06-24T20:49:20.582Z,13.20
2018-06-24T20:51:56.107Z,13.20
2018-06-24T20:54:31.731Z,13.20
2018-06-24T20:57:07.204Z,13.10
2018-06-24T20:59:42.798Z,13.00
2018-06-24T21:02:18.335Z,13.00
2018-06-24T21:04:54.114Z,13.10
2018-06-24T21:07:29.372Z,13.00
2018-06-24T21:10:04.902Z,12.90
2018-06-24T21:15:15.592Z,12.80
2018-06-24T21:17:51.146Z,12.70
2018-06-24T21:20:26.682Z,12.70
2018-06-24T21:23:02.079Z,12.60
2018-06-24T21:25:37.484Z,12.60
2018-06-24T21:28:13.035Z,12.60
2018-06-24T21:30:48.678Z,12.50
2018-06-24T21:33:24.033Z,12.40
2018-06-24T21:35:59.567Z,12.40
2018-06-24T21:38:35.027Z,12.40
2018-06-24T21:41:10.368Z,12.40
2018-06-24T21:43:45.695Z,12.30
2018-06-24T21:48:56.695Z,12.30
2018-06-24T21:51:32.439Z,12.30
2018-06-24T21:54:07.943Z,12.20
2018-06-24T21:56:43.632Z,12.20
2018-06-24T21:59:19.102Z,12.10
2018-06-24T22:01:54.635Z,12.10
2018-06-24T22:07:05.416Z,12.10
2018-06-24T22:09:40.917Z,12.10
2018-06-24T22:12:16.607Z,12.10
2018-06-24T22:14:51.841Z,12.00
2018-06-24T22:17:27.912Z,12.00
2018-06-24T22:20:03.959Z,12.00
2018-06-24T22:22:39.527Z,11.90
2018-06-24T22:25:15.007Z,11.90
2018-06-24T22:27:50.613Z,11.90
2018-06-24T22:30:26.194Z,11.90
2018-06-24T22:33:01.886Z,11.90
2018-06-24T22:35:37.086Z,11.90
2018-06-24T22:38:12.605Z,11.90
2018-06-24T22:40:48.109Z,11.80
2018-06-24T22:45:58.851Z,11.80
2018-06-24T22:48:34.611Z,11.80
2018-06-24T22:51:10.160Z,11.80
2018-06-24T22:53:45.891Z,11.70
2018-06-24T22:56:21.315Z,11.70
2018-06-24T22:59:14.293Z,11.70
2018-06-24T23:01:49.612Z,11.70
2018-06-24T23:04:25.078Z,11.70
2018-06-24T23:07:00.558Z,11.60
2018-06-24T23:09:35.971Z,11.60
2018-06-24T23:12:11.471Z,11.60
2018-06-24T23:17:22.503Z,11.80
2018-06-24T23:19:58.160Z,11.90
2018-06-24T23:22:33.594Z,11.90
2018-06-24T23:25:09.373Z,12.00
2018-06-24T23:27:44.804Z,12.10
2018-06-24T23:30:20.453Z,12.10
2018-06-24T23:32:55.887Z,12.20
2018-06-24T23:35:31.444Z,12.20
2018-06-24T23:38:06.715Z,12.20
2018-06-24T23:40:42.438Z,12.30
2018-06-24T23:43:17.909Z,12.40
2018-06-24T23:45:53.443Z,12.40
2018-06-24T23:48:29.099Z,12.50
2018-06-24T23:51:04.931Z,12.50
2018-06-24T23:53:40.480Z,12.60
2018-06-24T23:56:16.203Z,12.60
